createdAt,value
2023-01-08T00:00:00.000Z,5.47
2023-01-08T00:15:00.000Z,4.64
2023-01-08T00:30:00.000Z,4.67
2023-01-08T00:45:00.000Z,4.96
2023-01-08T01:00:00.000Z,5.94
2023-01-08T01:15:00.000Z,7.25
2023-01-08T01:30:00.000Z,7.38
2023-01-08T01:45:00.000Z,6.6
2023-01-08T02:00:00.000Z,6.72
2023-01-08T02:15:00.000Z,6.48
2023-01-08T02:30:00.000Z,6.78
2023-01-08T02:45:00.000Z,6.98
2023-01-08T03:00:00.000Z,9.36
2023-01-08T03:15:00.000Z,9.29
2023-01-08T03:30:00.000Z,9.09
2023-01-08T03:45:00.000Z,10
2023-01-08T04:00:00.000Z,9.76
2023-01-08T04:15:00.000Z,8.76
2023-01-08T04:30:00.000Z,7.49
2023-01-08T04:45:00.000Z,7.13
2023-01-08T05:00:00.000Z,6.93
2023-01-08T05:15:00.000Z,8.11
2023-01-08T05:30:00.000Z,16.61
2023-01-08T05:45:00.000Z,16.35
2023-01-08T06:00:00.000Z,10.25
2023-01-08T06:15:00.000Z,8.05
2023-01-08T06:30:00.000Z,9.14
2023-01-08T06:45:00.000Z,9.53
2023-01-08T07:00:00.000Z,7.35
2023-01-08T07:15:00.000Z,7.95
2023-01-08T07:30:00.000Z,9.42
2023-01-08T07:45:00.000Z,11.54
2023-01-08T08:00:00.000Z,9.94
2023-01-08T08:15:00.000Z,9.09
2023-01-08T08:30:00.000Z,11.53
2023-01-08T08:45:00.000Z,14.79
2023-01-08T09:00:00.000Z,17.89
2023-01-08T09:15:00.000Z,14.93
2023-01-08T09:30:00.000Z,16.33
2023-01-08T09:45:00.000Z,14.12
2023-01-08T10:00:00.000Z,13.99
2023-01-08T10:15:00.000Z,12.95
2023-01-08T10:30:00.000Z,12.99
2023-01-08T10:45:00.000Z,11.56
2023-01-08T11:00:00.000Z,16.79
2023-01-08T11:15:00.000Z,18.49
2023-01-08T11:30:00.000Z,15.54
2023-01-08T11:45:00.000Z,27.59
2023-01-08T12:00:00.000Z,13.04
2023-01-08T12:15:00.000Z,12.6
2023-01-08T12:30:00.000Z,7.24
2023-01-08T12:45:00.000Z,5.25
2023-01-08T13:00:00.000Z,5.52
2023-01-08T13:15:00.000Z,5.29
2023-01-08T13:30:00.000Z,5.81
2023-01-08T13:45:00.000Z,6.08
2023-01-08T14:00:00.000Z,7.46
2023-01-08T14:15:00.000Z,9.31
2023-01-08T14:30:00.000Z,51.78
2023-01-08T14:45:00.000Z,42.16
2023-01-08T15:00:00.000Z,16.59
2023-01-08T15:15:00.000Z,13.4
2023-01-08T15:30:00.000Z,11.2
2023-01-08T15:45:00.000Z,13.94
2023-01-08T16:00:00.000Z,15.26
2023-01-08T16:15:00.000Z,18.91
2023-01-08T16:30:00.000Z,22.66
2023-01-08T16:45:00.000Z,23.31
2023-01-08T17:00:00.000Z,23.22
2023-01-08T17:15:00.000Z,18.46
2023-01-08T17:30:00.000Z,14.52
2023-01-08T17:45:00.000Z,14.95
2023-01-08T18:00:00.000Z,13.36
2023-01-08T18:15:00.000Z,12.86
2023-01-08T18:30:00.000Z,15.75
2023-01-08T18:45:00.000Z,9.81
2023-01-08T19:00:00.000Z,9.32
2023-01-08T19:15:00.000Z,19.18
2023-01-08T19:30:00.000Z,15.27
2023-01-08T19:45:00.000Z,12.22
2023-01-08T20:00:00.000Z,9.91
2023-01-08T20:15:00.000Z,9.46
2023-01-08T20:30:00.000Z,20.05
2023-01-08T20:45:00.000Z,23.09
2023-01-08T21:00:00.000Z,21.25
2023-01-08T21:15:00.000Z,22.65
2023-01-08T21:30:00.000Z,18.94
2023-01-08T21:45:00.000Z,20.93
2023-01-08T22:00:00.000Z,17.62
2023-01-08T22:15:00.000Z,16.01
2023-01-08T22:30:00.000Z,16.15
2023-01-08T22:45:00.000Z,15.35
2023-01-08T23:00:00.000Z,16.71
2023-01-08T23:15:00.000Z,16.53
2023-01-08T23:30:00.000Z,15.13
2023-01-08T23:45:00.000Z,15.72
